sensor_id;sensor_type;location;lat;lon;timestamp;temperature;humidity
52611;DHT22;38727;40.130;18.292;2024-02-26T00:01:02;14.30;80.70
52611;DHT22;38727;40.130;18.292;2024-02-26T00:03:33;14.30;80.70
52611;DHT22;38727;40.130;18.292;2024-02-26T00:06:07;14.30;80.70
52611;DHT22;38727;40.130;18.292;2024-02-26T00:08:37;14.30;80.60
52611;DHT22;38727;40.130;18.292;2024-02-26T00:11:09;14.30;80.50
52611;DHT22;38727;40.130;18.292;2024-02-26T00:13:40;14.30;80.50
52611;DHT22;38727;40.130;18.292;2024-02-26T00:16:13;14.30;80.30
52611;DHT22;38727;40.130;18.292;2024-02-26T00:18:44;14.30;80.20
52611;DHT22;38727;40.130;18.292;2024-02-26T00:21:18;14.30;80.00
52611;DHT22;38727;40.130;18.292;2024-02-26T00:23:49;14.30;79.90
52611;DHT22;38727;40.130;18.292;2024-02-26T00:26:22;14.30;79.90
52611;DHT22;38727;40.130;18.292;2024-02-26T00:28:54;14.30;79.80
52611;DHT22;38727;40.130;18.292;2024-02-26T00:31:25;14.30;79.70
52611;DHT22;38727;40.130;18.292;2024-02-26T00:33:59;14.30;79.70
52611;DHT22;38727;40.130;18.292;2024-02-26T00:36:32;14.30;79.70
52611;DHT22;38727;40.130;18.292;2024-02-26T00:39:03;14.30;79.60
52611;DHT22;38727;40.130;18.292;2024-02-26T00:41:38;14.30;79.60
52611;DHT22;38727;40.130;18.292;2024-02-26T00:44:09;14.30;79.60
52611;DHT22;38727;40.130;18.292;2024-02-26T00:46:41;14.30;79.30
52611;DHT22;38727;40.130;18.292;2024-02-26T00:49:12;14.30;79.10
52611;DHT22;38727;40.130;18.292;2024-02-26T00:51:43;14.20;79.10
52611;DHT22;38727;40.130;18.292;2024-02-26T00:54:15;14.10;79.30
52611;DHT22;38727;40.130;18.292;2024-02-26T00:56:47;14.00;79.50
52611;DHT22;38727;40.130;18.292;2024-02-26T00:59:18;14.00;79.60
52611;DHT22;38727;40.130;18.292;2024-02-26T01:01:48;13.90;79.80
52611;DHT22;38727;40.130;18.292;2024-02-26T01:04:20;13.90;79.80
52611;DHT22;38727;40.130;18.292;2024-02-26T01:06:51;13.90;79.80
52611;DHT22;38727;40.130;18.292;2024-02-26T01:09:23;13.80;79.80
52611;DHT22;38727;40.130;18.292;2024-02-26T01:11:55;13.70;79.90
52611;DHT22;38727;40.130;18.292;2024-02-26T01:14:26;13.60;80.30
52611;DHT22;38727;40.130;18.292;2024-02-26T01:16:57;13.60;80.40
52611;DHT22;38727;40.130;18.292;2024-02-26T01:19:28;13.50;80.50
52611;DHT22;38727;40.130;18.292;2024-02-26T01:22:00;13.50;80.60
52611;DHT22;38727;40.130;18.292;2024-02-26T01:24:31;13.50;80.80
52611;DHT22;38727;40.130;18.292;2024-02-26T01:27:03;13.40;80.90
52611;DHT22;38727;40.130;18.292;2024-02-26T01:29:34;13.40;81.00
52611;DHT22;38727;40.130;18.292;2024-02-26T01:32:05;13.40;81.00
52611;DHT22;38727;40.130;18.292;2024-02-26T01:34:35;13.40;81.10
52611;DHT22;38727;40.130;18.292;2024-02-26T01:37:06;13.40;81.00
52611;DHT22;38727;40.130;18.292;2024-02-26T01:39:37;13.30;81.10
52611;DHT22;38727;40.130;18.292;2024-02-26T01:42:11;13.30;81.20
52611;DHT22;38727;40.130;18.292;2024-02-26T01:44:42;13.30;81.20
52611;DHT22;38727;40.130;18.292;2024-02-26T01:47:16;13.20;81.20
52611;DHT22;38727;40.130;18.292;2024-02-26T01:49:47;13.10;81.20
52611;DHT22;38727;40.130;18.292;2024-02-26T01:52:19;13.10;81.30
52611;DHT22;38727;40.130;18.292;2024-02-26T01:54:51;13.10;81.30
52611;DHT22;38727;40.130;18.292;2024-02-26T01:57:26;13.10;81.30
52611;DHT22;38727;40.130;18.292;2024-02-26T01:59:58;13.00;81.20
52611;DHT22;38727;40.130;18.292;2024-02-26T02:02:33;12.90;81.20
52611;DHT22;38727;40.130;18.292;2024-02-26T02:05:05;12.80;81.20
52611;DHT22;38727;40.130;18.292;2024-02-26T02:07:36;12.80;81.10
52611;DHT22;38727;40.130;18.292;2024-02-26T02:10:08;12.70;81.30
52611;DHT22;38727;40.130;18.292;2024-02-26T02:12:40;12.70;81.50
52611;DHT22;38727;40.130;18.292;2024-02-26T02:15:12;12.70;81.70
52611;DHT22;38727;40.130;18.292;2024-02-26T02:17:44;12.60;81.90
52611;DHT22;38727;40.130;18.292;2024-02-26T02:20:25;12.60;82.10
52611;DHT22;38727;40.130;18.292;2024-02-26T02:22:55;12.70;82.10
52611;DHT22;38727;40.130;18.292;2024-02-26T02:25:26;12.70;82.20
52611;DHT22;38727;40.130;18.292;2024-02-26T02:27:57;12.70;82.10
52611;DHT22;38727;40.130;18.292;2024-02-26T02:30:29;12.70;82.10
52611;DHT22;38727;40.130;18.292;2024-02-26T02:33:00;12.60;82.20
52611;DHT22;38727;40.130;18.292;2024-02-26T02:35:34;12.70;82.30
52611;DHT22;38727;40.130;18.292;2024-02-26T02:38:05;12.70;82.30
52611;DHT22;38727;40.130;18.292;2024-02-26T02:40:35;12.70;82.30
52611;DHT22;38727;40.130;18.292;2024-02-26T02:43:06;12.60;82.40
52611;DHT22;38727;40.130;18.292;2024-02-26T02:45:38;12.60;82.50
52611;DHT22;38727;40.130;18.292;2024-02-26T02:48:08;12.60;82.70
52611;DHT22;38727;40.130;18.292;2024-02-26T02:50:42;12.60;82.90
52611;DHT22;38727;40.130;18.292;2024-02-26T02:53:13;12.60;83.00
52611;DHT22;38727;40.130;18.292;2024-02-26T02:55:45;12.60;83.00
52611;DHT22;38727;40.130;18.292;2024-02-26T02:58:16;12.60;83.20
52611;DHT22;38727;40.130;18.292;2024-02-26T03:00:46;12.60;83.30
52611;DHT22;38727;40.130;18.292;2024-02-26T03:03:17;12.60;83.30
52611;DHT22;38727;40.130;18.292;2024-02-26T03:05:52;12.60;83.40
52611;DHT22;38727;40.130;18.292;2024-02-26T03:08:23;12.60;83.60
52611;DHT22;38727;40.130;18.292;2024-02-26T03:11:01;12.60;83.70
52611;DHT22;38727;40.130;18.292;2024-02-26T03:13:31;12.60;83.80
52611;DHT22;38727;40.130;18.292;2024-02-26T03:16:05;12.60;84.00
52611;DHT22;38727;40.130;18.292;2024-02-26T03:18:38;12.60;84.10
52611;DHT22;38727;40.130;18.292;2024-02-26T03:21:11;12.50;84.30
52611;DHT22;38727;40.130;18.292;2024-02-26T03:23:42;12.50;84.60
52611;DHT22;38727;40.130;18.292;2024-02-26T03:26:13;12.50;84.80
52611;DHT22;38727;40.130;18.292;2024-02-26T03:28:44;12.50;84.90
52611;DHT22;38727;40.130;18.292;2024-02-26T03:31:16;12.50;85.10
52611;DHT22;38727;40.130;18.292;2024-02-26T03:33:46;12.50;85.30
52611;DHT22;38727;40.130;18.292;2024-02-26T03:36:20;12.50;85.50
52611;DHT22;38727;40.130;18.292;2024-02-26T03:38:52;12.60;85.70
52611;DHT22;38727;40.130;18.292;2024-02-26T03:41:24;12.60;85.80
52611;DHT22;38727;40.130;18.292;2024-02-26T03:43:56;12.50;86.00
52611;DHT22;38727;40.130;18.292;2024-02-26T03:46:26;12.50;86.00
52611;DHT22;38727;40.130;18.292;2024-02-26T03:48:57;12.60;86.20
52611;DHT22;38727;40.130;18.292;2024-02-26T03:51:31;12.50;86.30
52611;DHT22;38727;40.130;18.292;2024-02-26T03:54:02;12.50;86.40
52611;DHT22;38727;40.130;18.292;2024-02-26T03:56:37;12.60;86.40
52611;DHT22;38727;40.130;18.292;2024-02-26T03:59:08;12.50;86.40
52611;DHT22;38727;40.130;18.292;2024-02-26T04:01:44;12.50;86.50
52611;DHT22;38727;40.130;18.292;2024-02-26T04:04:15;12.50;86.60
52611;DHT22;38727;40.130;18.292;2024-02-26T04:06:47;12.60;86.60
52611;DHT22;38727;40.130;18.292;2024-02-26T04:09:19;12.60;86.60
52611;DHT22;38727;40.130;18.292;2024-02-26T04:11:50;12.60;86.70
52611;DHT22;38727;40.130;18.292;2024-02-26T04:14:21;12.60;86.70
52611;DHT22;38727;40.130;18.292;2024-02-26T04:16:52;12.70;86.70
52611;DHT22;38727;40.130;18.292;2024-02-26T04:19:24;12.70;86.60
52611;DHT22;38727;40.130;18.292;2024-02-26T04:22:16;12.70;86.70
52611;DHT22;38727;40.130;18.292;2024-02-26T04:24:48;12.80;86.60
52611;DHT22;38727;40.130;18.292;2024-02-26T04:27:22;12.70;86.50
52611;DHT22;38727;40.130;18.292;2024-02-26T04:29:51;12.80;86.50
52611;DHT22;38727;40.130;18.292;2024-02-26T04:32:22;12.80;86.30
52611;DHT22;38727;40.130;18.292;2024-02-26T04:34:53;12.80;86.30
52611;DHT22;38727;40.130;18.292;2024-02-26T04:37:25;12.80;86.20
52611;DHT22;38727;40.130;18.292;2024-02-26T04:39:59;12.80;86.00
52611;DHT22;38727;40.130;18.292;2024-02-26T04:42:30;12.70;85.90
52611;DHT22;38727;40.130;18.292;2024-02-26T04:45:01;12.70;85.90
52611;DHT22;38727;40.130;18.292;2024-02-26T04:47:33;12.70;85.80
52611;DHT22;38727;40.130;18.292;2024-02-26T04:50:03;12.70;85.60
52611;DHT22;38727;40.130;18.292;2024-02-26T04:52:36;12.60;85.60
52611;DHT22;38727;40.130;18.292;2024-02-26T04:55:07;12.60;85.70
52611;DHT22;38727;40.130;18.292;2024-02-26T04:57:39;12.60;85.50
52611;DHT22;38727;40.130;18.292;2024-02-26T05:00:11;12.50;85.60
52611;DHT22;38727;40.130;18.292;2024-02-26T05:02:43;12.50;85.70
52611;DHT22;38727;40.130;18.292;2024-02-26T05:05:14;12.40;85.70
52611;DHT22;38727;40.130;18.292;2024-02-26T05:07:46;12.40;85.90
52611;DHT22;38727;40.130;18.292;2024-02-26T05:10:17;12.40;85.90
52611;DHT22;38727;40.130;18.292;2024-02-26T05:12:48;12.40;85.90
52611;DHT22;38727;40.130;18.292;2024-02-26T05:15:19;12.40;85.90
52611;DHT22;38727;40.130;18.292;2024-02-26T05:17:50;12.40;85.90
52611;DHT22;38727;40.130;18.292;2024-02-26T05:20:22;12.40;85.80
52611;DHT22;38727;40.130;18.292;2024-02-26T05:22:55;12.40;85.70
52611;DHT22;38727;40.130;18.292;2024-02-26T05:25:28;12.40;85.70
52611;DHT22;38727;40.130;18.292;2024-02-26T05:28:01;12.40;85.80
52611;DHT22;38727;40.130;18.292;2024-02-26T05:30:33;12.40;85.80
52611;DHT22;38727;40.130;18.292;2024-02-26T05:33:05;12.40;85.80
52611;DHT22;38727;40.130;18.292;2024-02-26T05:35:37;12.40;85.80
52611;DHT22;38727;40.130;18.292;2024-02-26T05:38:12;12.40;85.80
52611;DHT22;38727;40.130;18.292;2024-02-26T05:40:43;12.40;85.80
52611;DHT22;38727;40.130;18.292;2024-02-26T05:43:14;12.40;85.90
52611;DHT22;38727;40.130;18.292;2024-02-26T05:45:45;12.30;86.10
52611;DHT22;38727;40.130;18.292;2024-02-26T05:48:15;12.40;86.20
52611;DHT22;38727;40.130;18.292;2024-02-26T05:50:47;12.40;86.10
52611;DHT22;38727;40.130;18.292;2024-02-26T05:53:21;12.40;86.20
52611;DHT22;38727;40.130;18.292;2024-02-26T05:55:51;12.50;86.20
52611;DHT22;38727;40.130;18.292;2024-02-26T05:58:23;12.50;86.20
52611;DHT22;38727;40.130;18.292;2024-02-26T06:01:11;12.50;86.20
52611;DHT22;38727;40.130;18.292;2024-02-26T06:03:43;12.50;86.30
52611;DHT22;38727;40.130;18.292;2024-02-26T06:06:14;12.60;86.30
52611;DHT22;38727;40.130;18.292;2024-02-26T06:08:46;12.60;86.20
52611;DHT22;38727;40.130;18.292;2024-02-26T06:11:17;12.60;86.30
52611;DHT22;38727;40.130;18.292;2024-02-26T06:13:48;12.70;86.20
52611;DHT22;38727;40.130;18.292;2024-02-26T06:16:18;12.60;86.10
52611;DHT22;38727;40.130;18.292;2024-02-26T06:18:49;12.70;86.20
52611;DHT22;38727;40.130;18.292;2024-02-26T06:21:20;12.70;86.00
52611;DHT22;38727;40.130;18.292;2024-02-26T06:23:53;12.80;85.90
52611;DHT22;38727;40.130;18.292;2024-02-26T06:26:24;12.80;85.60
52611;DHT22;38727;40.130;18.292;2024-02-26T06:28:58;12.80;85.60
52611;DHT22;38727;40.130;18.292;2024-02-26T06:31:29;12.70;85.70
52611;DHT22;38727;40.130;18.292;2024-02-26T06:34:00;12.80;85.70
52611;DHT22;38727;40.130;18.292;2024-02-26T06:36:32;12.80;85.70
52611;DHT22;38727;40.130;18.292;2024-02-26T06:39:05;12.80;85.70
52611;DHT22;38727;40.130;18.292;2024-02-26T06:41:37;12.80;85.60
52611;DHT22;38727;40.130;18.292;2024-02-26T06:44:09;12.80;85.60
52611;DHT22;38727;40.130;18.292;2024-02-26T06:46:40;12.80;85.60
52611;DHT22;38727;40.130;18.292;2024-02-26T06:49:12;12.90;85.90
52611;DHT22;38727;40.130;18.292;2024-02-26T06:51:42;13.10;86.10
52611;DHT22;38727;40.130;18.292;2024-02-26T06:54:16;13.20;86.00
52611;DHT22;38727;40.130;18.292;2024-02-26T06:56:47;13.30;85.90
52611;DHT22;38727;40.130;18.292;2024-02-26T06:59:19;13.30;85.70
52611;DHT22;38727;40.130;18.292;2024-02-26T07:01:54;13.40;85.50
52611;DHT22;38727;40.130;18.292;2024-02-26T07:04:25;13.40;85.00
52611;DHT22;38727;40.130;18.292;2024-02-26T07:06:57;13.40;84.40
52611;DHT22;38727;40.130;18.292;2024-02-26T07:09:31;13.40;84.00
52611;DHT22;38727;40.130;18.292;2024-02-26T07:12:03;13.40;83.80
52611;DHT22;38727;40.130;18.292;2024-02-26T07:14:33;13.40;84.00
52611;DHT22;38727;40.130;18.292;2024-02-26T07:17:07;13.40;84.00
52611;DHT22;38727;40.130;18.292;2024-02-26T07:19:41;13.40;84.30
52611;DHT22;38727;40.130;18.292;2024-02-26T07:22:12;13.50;84.30
52611;DHT22;38727;40.130;18.292;2024-02-26T07:24:49;13.50;83.80
52611;DHT22;38727;40.130;18.292;2024-02-26T07:27:33;13.60;83.80
52611;DHT22;38727;40.130;18.292;2024-02-26T07:30:10;13.60;84.10
52611;DHT22;38727;40.130;18.292;2024-02-26T07:32:42;13.80;83.90
52611;DHT22;38727;40.130;18.292;2024-02-26T07:35:17;13.80;84.00
52611;DHT22;38727;40.130;18.292;2024-02-26T07:37:48;13.90;83.70
52611;DHT22;38727;40.130;18.292;2024-02-26T07:40:21;14.00;83.50
52611;DHT22;38727;40.130;18.292;2024-02-26T07:42:59;14.00;83.40
52611;DHT22;38727;40.130;18.292;2024-02-26T07:45:34;14.10;83.70
52611;DHT22;38727;40.130;18.292;2024-02-26T07:48:05;14.30;83.30
52611;DHT22;38727;40.130;18.292;2024-02-26T07:50:35;14.30;82.70
52611;DHT22;38727;40.130;18.292;2024-02-26T07:53:17;14.40;82.50
52611;DHT22;38727;40.130;18.292;2024-02-26T07:55:52;14.60;82.60
52611;DHT22;38727;40.130;18.292;2024-02-26T07:58:23;14.70;82.10
52611;DHT22;38727;40.130;18.292;2024-02-26T08:00:54;14.80;81.80
52611;DHT22;38727;40.130;18.292;2024-02-26T08:03:26;15.00;81.80
52611;DHT22;38727;40.130;18.292;2024-02-26T08:05:58;15.10;81.40
52611;DHT22;38727;40.130;18.292;2024-02-26T08:08:34;15.20;81.10
52611;DHT22;38727;40.130;18.292;2024-02-26T08:11:22;15.30;80.50
52611;DHT22;38727;40.130;18.292;2024-02-26T08:13:55;15.30;80.40
52611;DHT22;38727;40.130;18.292;2024-02-26T08:16:26;15.40;80.00
52611;DHT22;38727;40.130;18.292;2024-02-26T08:19:00;15.50;79.10
52611;DHT22;38727;40.130;18.292;2024-02-26T08:21:31;15.40;79.00
52611;DHT22;38727;40.130;18.292;2024-02-26T08:24:11;15.50;78.00
52611;DHT22;38727;40.130;18.292;2024-02-26T08:26:44;15.60;77.90
52611;DHT22;38727;40.130;18.292;2024-02-26T08:29:15;15.70;78.00
52611;DHT22;38727;40.130;18.292;2024-02-26T08:31:47;15.80;77.80
52611;DHT22;38727;40.130;18.292;2024-02-26T08:34:20;15.90;76.10
52611;DHT22;38727;40.130;18.292;2024-02-26T08:36:51;16.00;76.50
52611;DHT22;38727;40.130;18.292;2024-02-26T08:39:23;16.00;74.90
52611;DHT22;38727;40.130;18.292;2024-02-26T08:41:56;15.90;75.30
52611;DHT22;38727;40.130;18.292;2024-02-26T08:44:28;15.90;75.80
52611;DHT22;38727;40.130;18.292;2024-02-26T08:46:59;16.00;75.20
52611;DHT22;38727;40.130;18.292;2024-02-26T08:49:29;16.00;74.90
52611;DHT22;38727;40.130;18.292;2024-02-26T08:52:01;15.90;74.80
52611;DHT22;38727;40.130;18.292;2024-02-26T08:54:34;15.90;74.50
52611;DHT22;38727;40.130;18.292;2024-02-26T08:57:09;15.90;74.90
52611;DHT22;38727;40.130;18.292;2024-02-26T08:59:39;16.10;75.10
52611;DHT22;38727;40.130;18.292;2024-02-26T09:02:15;16.20;74.60
52611;DHT22;38727;40.130;18.292;2024-02-26T09:04:46;16.30;73.90
52611;DHT22;38727;40.130;18.292;2024-02-26T09:07:19;16.30;74.10
52611;DHT22;38727;40.130;18.292;2024-02-26T09:09:54;16.40;73.60
52611;DHT22;38727;40.130;18.292;2024-02-26T09:12:31;16.40;73.70
52611;DHT22;38727;40.130;18.292;2024-02-26T09:15:03;16.50;73.70
52611;DHT22;38727;40.130;18.292;2024-02-26T09:17:34;16.60;73.10
52611;DHT22;38727;40.130;18.292;2024-02-26T09:20:11;16.60;72.40
52611;DHT22;38727;40.130;18.292;2024-02-26T09:22:42;16.60;73.00
52611;DHT22;38727;40.130;18.292;2024-02-26T09:25:13;16.80;72.00
52611;DHT22;38727;40.130;18.292;2024-02-26T09:27:46;16.90;71.10
52611;DHT22;38727;40.130;18.292;2024-02-26T09:30:16;17.10;71.30
52611;DHT22;38727;40.130;18.292;2024-02-26T09:32:52;17.20;70.00
52611;DHT22;38727;40.130;18.292;2024-02-26T09:35:22;17.30;69.70
52611;DHT22;38727;40.130;18.292;2024-02-26T09:37:53;17.10;68.50
52611;DHT22;38727;40.130;18.292;2024-02-26T09:40:24;16.80;69.20
52611;DHT22;38727;40.130;18.292;2024-02-26T09:42:59;16.80;70.20
52611;DHT22;38727;40.130;18.292;2024-02-26T09:45:31;17.20;69.90
52611;DHT22;38727;40.130;18.292;2024-02-26T09:48:05;17.50;69.10
52611;DHT22;38727;40.130;18.292;2024-02-26T09:50:40;17.80;68.60
52611;DHT22;38727;40.130;18.292;2024-02-26T09:53:12;17.80;66.90
52611;DHT22;38727;40.130;18.292;2024-02-26T09:55:46;17.80;67.50
52611;DHT22;38727;40.130;18.292;2024-02-26T09:58:33;17.80;68.20
52611;DHT22;38727;40.130;18.292;2024-02-26T10:01:09;17.90;66.80
52611;DHT22;38727;40.130;18.292;2024-02-26T10:03:53;18.00;66.20
52611;DHT22;38727;40.130;18.292;2024-02-26T10:06:30;18.20;65.40
52611;DHT22;38727;40.130;18.292;2024-02-26T10:09:01;18.30;65.70
52611;DHT22;38727;40.130;18.292;2024-02-26T10:11:34;18.60;65.10
52611;DHT22;38727;40.130;18.292;2024-02-26T10:14:07;18.70;64.00
52611;DHT22;38727;40.130;18.292;2024-02-26T10:16:39;18.40;64.50
52611;DHT22;38727;40.130;18.292;2024-02-26T10:19:30;18.40;64.70
52611;DHT22;38727;40.130;18.292;2024-02-26T10:22:02;18.60;64.10
52611;DHT22;38727;40.130;18.292;2024-02-26T10:24:36;18.60;63.60
52611;DHT22;38727;40.130;18.292;2024-02-26T10:27:08;18.80;64.20
52611;DHT22;38727;40.130;18.292;2024-02-26T10:29:43;19.00;63.20
52611;DHT22;38727;40.130;18.292;2024-02-26T10:32:15;19.30;62.40
52611;DHT22;38727;40.130;18.292;2024-02-26T10:34:47;19.40;60.20
52611;DHT22;38727;40.130;18.292;2024-02-26T10:37:22;19.00;62.60
52611;DHT22;38727;40.130;18.292;2024-02-26T10:39:59;19.10;63.40
52611;DHT22;38727;40.130;18.292;2024-02-26T10:42:33;19.20;62.70
52611;DHT22;38727;40.130;18.292;2024-02-26T10:45:09;19.20;61.00
52611;DHT22;38727;40.130;18.292;2024-02-26T10:47:41;19.30;61.10
52611;DHT22;38727;40.130;18.292;2024-02-26T10:50:13;19.40;61.00
52611;DHT22;38727;40.130;18.292;2024-02-26T10:53:15;19.50;61.10
52611;DHT22;38727;40.130;18.292;2024-02-26T10:55:52;19.50;60.10
52611;DHT22;38727;40.130;18.292;2024-02-26T10:58:24;19.30;60.80
52611;DHT22;38727;40.130;18.292;2024-02-26T11:01:16;19.50;61.30
52611;DHT22;38727;40.130;18.292;2024-02-26T11:03:50;19.70;60.50
52611;DHT22;38727;40.130;18.292;2024-02-26T11:06:22;20.00;60.20
52611;DHT22;38727;40.130;18.292;2024-02-26T11:09:02;20.20;58.90
52611;DHT22;38727;40.130;18.292;2024-02-26T11:11:33;20.50;58.30
52611;DHT22;38727;40.130;18.292;2024-02-26T11:14:05;20.70;57.00
52611;DHT22;38727;40.130;18.292;2024-02-26T11:16:39;20.50;56.90
52611;DHT22;38727;40.130;18.292;2024-02-26T11:19:09;20.40;56.50
52611;DHT22;38727;40.130;18.292;2024-02-26T11:21:50;20.10;57.30
52611;DHT22;38727;40.130;18.292;2024-02-26T11:24:22;20.00;58.10
52611;DHT22;38727;40.130;18.292;2024-02-26T11:26:58;20.20;56.50
52611;DHT22;38727;40.130;18.292;2024-02-26T11:29:34;20.30;57.00
52611;DHT22;38727;40.130;18.292;2024-02-26T11:32:10;20.50;57.30
52611;DHT22;38727;40.130;18.292;2024-02-26T11:34:45;20.70;55.50
52611;DHT22;38727;40.130;18.292;2024-02-26T11:37:17;20.80;55.60
52611;DHT22;38727;40.130;18.292;2024-02-26T11:39:47;20.90;55.50
52611;DHT22;38727;40.130;18.292;2024-02-26T11:42:24;21.30;54.40
52611;DHT22;38727;40.130;18.292;2024-02-26T11:44:58;21.20;54.00
52611;DHT22;38727;40.130;18.292;2024-02-26T11:47:35;21.20;54.00
52611;DHT22;38727;40.130;18.292;2024-02-26T11:53:25;21.40;53.30
52611;DHT22;38727;40.130;18.292;2024-02-26T11:56:30;21.50;53.00
52611;DHT22;38727;40.130;18.292;2024-02-26T11:59:09;21.60;53.20
52611;DHT22;38727;40.130;18.292;2024-02-26T12:01:59;21.80;52.80
52611;DHT22;38727;40.130;18.292;2024-02-26T12:04:37;21.70;52.30
52611;DHT22;38727;40.130;18.292;2024-02-26T12:07:11;21.60;52.60
52611;DHT22;38727;40.130;18.292;2024-02-26T12:09:47;21.80;51.40
52611;DHT22;38727;40.130;18.292;2024-02-26T12:12:19;21.80;51.80
52611;DHT22;38727;40.130;18.292;2024-02-26T12:15:13;21.70;51.70
52611;DHT22;38727;40.130;18.292;2024-02-26T12:22:06;21.90;51.30
52611;DHT22;38727;40.130;18.292;2024-02-26T12:25:05;21.90;50.40
52611;DHT22;38727;40.130;18.292;2024-02-26T12:27:53;21.50;52.20
52611;DHT22;38727;40.130;18.292;2024-02-26T12:30:40;20.90;53.50
52611;DHT22;38727;40.130;18.292;2024-02-26T12:33:45;20.60;55.10
52611;DHT22;38727;40.130;18.292;2024-02-26T12:36:30;20.40;55.90
52611;DHT22;38727;40.130;18.292;2024-02-26T12:39:58;20.70;55.60
52611;DHT22;38727;40.130;18.292;2024-02-26T12:42:46;21.20;54.20
52611;DHT22;38727;40.130;18.292;2024-02-26T12:45:45;21.20;53.00
52611;DHT22;38727;40.130;18.292;2024-02-26T12:49:14;20.80;54.70
52611;DHT22;38727;40.130;18.292;2024-02-26T12:52:02;20.80;54.00
52611;DHT22;38727;40.130;18.292;2024-02-26T12:58:47;20.60;54.60
52611;DHT22;38727;40.130;18.292;2024-02-26T13:01:27;20.60;55.10
52611;DHT22;38727;40.130;18.292;2024-02-26T13:08:42;20.90;53.10
52611;DHT22;38727;40.130;18.292;2024-02-26T13:11:43;20.70;55.20
52611;DHT22;38727;40.130;18.292;2024-02-26T13:14:22;20.90;53.30
52611;DHT22;38727;40.130;18.292;2024-02-26T13:17:03;21.30;52.50
52611;DHT22;38727;40.130;18.292;2024-02-26T13:19:36;21.40;51.40
52611;DHT22;38727;40.130;18.292;2024-02-26T13:22:11;21.20;51.80
52611;DHT22;38727;40.130;18.292;2024-02-26T13:25:12;21.00;52.60
52611;DHT22;38727;40.130;18.292;2024-02-26T13:28:09;21.10;52.40
52611;DHT22;38727;40.130;18.292;2024-02-26T13:30:58;21.30;52.40
52611;DHT22;38727;40.130;18.292;2024-02-26T13:33:46;21.80;50.80
52611;DHT22;38727;40.130;18.292;2024-02-26T13:36:35;21.90;49.60
52611;DHT22;38727;40.130;18.292;2024-02-26T13:39:37;21.80;49.60
52611;DHT22;38727;40.130;18.292;2024-02-26T13:42:35;21.80;49.60
52611;DHT22;38727;40.130;18.292;2024-02-26T13:45:36;21.90;50.00
52611;DHT22;38727;40.130;18.292;2024-02-26T13:48:26;22.30;48.10
52611;DHT22;38727;40.130;18.292;2024-02-26T13:51:06;22.40;48.20
52611;DHT22;38727;40.130;18.292;2024-02-26T13:53:55;22.70;47.60
52611;DHT22;38727;40.130;18.292;2024-02-26T13:56:43;23.00;47.20
52611;DHT22;38727;40.130;18.292;2024-02-26T13:59:36;23.20;46.50
52611;DHT22;38727;40.130;18.292;2024-02-26T14:02:55;23.10;45.60
52611;DHT22;38727;40.130;18.292;2024-02-26T14:05:29;22.40;47.00
52611;DHT22;38727;40.130;18.292;2024-02-26T14:08:39;22.20;48.10
52611;DHT22;38727;40.130;18.292;2024-02-26T14:11:45;22.40;48.10
52611;DHT22;38727;40.130;18.292;2024-02-26T14:14:51;23.10;46.20
52611;DHT22;38727;40.130;18.292;2024-02-26T14:18:21;23.00;46.10
52611;DHT22;38727;40.130;18.292;2024-02-26T14:21:51;23.30;46.10
52611;DHT22;38727;40.130;18.292;2024-02-26T14:24:39;23.60;45.10
52611;DHT22;38727;40.130;18.292;2024-02-26T14:27:40;24.00;44.90
52611;DHT22;38727;40.130;18.292;2024-02-26T14:30:32;24.30;44.60
52611;DHT22;38727;40.130;18.292;2024-02-26T14:33:41;24.70;43.80
52611;DHT22;38727;40.130;18.292;2024-02-26T14:36:41;24.90;42.80
52611;DHT22;38727;40.130;18.292;2024-02-26T14:39:19;25.00;42.20
52611;DHT22;38727;40.130;18.292;2024-02-26T14:42:05;25.00;42.10
52611;DHT22;38727;40.130;18.292;2024-02-26T14:44:48;24.90;42.30
52611;DHT22;38727;40.130;18.292;2024-02-26T14:47:59;25.00;42.60
52611;DHT22;38727;40.130;18.292;2024-02-26T14:51:05;25.20;42.40
52611;DHT22;38727;40.130;18.292;2024-02-26T14:53:47;25.60;41.90
52611;DHT22;38727;40.130;18.292;2024-02-26T15:00:23;26.60;39.30
52611;DHT22;38727;40.130;18.292;2024-02-26T15:03:06;27.00;38.80
52611;DHT22;38727;40.130;18.292;2024-02-26T15:06:25;27.80;37.20
52611;DHT22;38727;40.130;18.292;2024-02-26T15:09:17;29.10;36.20
52611;DHT22;38727;40.130;18.292;2024-02-26T15:12:13;30.40;34.00
52611;DHT22;38727;40.130;18.292;2024-02-26T15:15:08;31.10;32.20
52611;DHT22;38727;40.130;18.292;2024-02-26T15:18:08;31.60;31.60
52611;DHT22;38727;40.130;18.292;2024-02-26T15:25:22;31.40;31.60
52611;DHT22;38727;40.130;18.292;2024-02-26T15:28:53;32.30;30.90
52611;DHT22;38727;40.130;18.292;2024-02-26T15:32:35;33.30;29.60
52611;DHT22;38727;40.130;18.292;2024-02-26T15:34:55;33.30;29.20
52611;DHT22;38727;40.130;18.292;2024-02-26T15:37:47;33.10;29.80
52611;DHT22;38727;40.130;18.292;2024-02-26T15:41:04;33.30;29.50
52611;DHT22;38727;40.130;18.292;2024-02-26T15:44:19;33.40;29.10
52611;DHT22;38727;40.130;18.292;2024-02-26T15:47:10;33.20;29.10
52611;DHT22;38727;40.130;18.292;2024-02-26T15:50:00;32.40;29.80
52611;DHT22;38727;40.130;18.292;2024-02-26T15:52:41;31.00;31.10
52611;DHT22;38727;40.130;18.292;2024-02-26T15:55:55;29.50;33.00
52611;DHT22;38727;40.130;18.292;2024-02-26T15:58:38;28.00;35.40
52611;DHT22;38727;40.130;18.292;2024-02-26T16:01:09;27.20;36.60
52611;DHT22;38727;40.130;18.292;2024-02-26T16:03:39;26.30;37.90
52611;DHT22;38727;40.130;18.292;2024-02-26T16:06:27;25.30;39.70
52611;DHT22;38727;40.130;18.292;2024-02-26T16:08:59;24.30;41.50
52611;DHT22;38727;40.130;18.292;2024-02-26T16:11:31;23.40;43.00
52611;DHT22;38727;40.130;18.292;2024-02-26T16:14:09;22.70;44.40
52611;DHT22;38727;40.130;18.292;2024-02-26T16:16:47;22.10;45.70
52611;DHT22;38727;40.130;18.292;2024-02-26T16:19:21;21.60;47.00
52611;DHT22;38727;40.130;18.292;2024-02-26T16:21:53;21.20;48.10
52611;DHT22;38727;40.130;18.292;2024-02-26T16:24:24;20.80;49.10
52611;DHT22;38727;40.130;18.292;2024-02-26T16:26:56;20.40;49.90
52611;DHT22;38727;40.130;18.292;2024-02-26T16:29:28;20.30;50.70
52611;DHT22;38727;40.130;18.292;2024-02-26T16:31:59;20.10;51.20
52611;DHT22;38727;40.130;18.292;2024-02-26T16:34:30;19.80;51.70
52611;DHT22;38727;40.130;18.292;2024-02-26T16:36:59;19.60;52.30
52611;DHT22;38727;40.130;18.292;2024-02-26T16:39:29;19.40;52.90
52611;DHT22;38727;40.130;18.292;2024-02-26T16:42:02;19.20;53.40